Bradford Regional Airport Bradford US
ICAO: KBFD
IATA: BFD
Category: Medium
Scheduled Services: Yes

Elevation: 2143 ft
TransAlt. 18000 ft.

Airport Communications:
ASOS:133.825
CLEVELAND CNTR:124.325
ALTOONA RDO:122.2
CTAF/UNICOM:123.075

KBFD Zoom In..

If you have problems with the map follow the link
https://www.worldairports.se/pages/airport.php?
ICAO=KBFD

Runways:

(A) RW 05 length 4499 ft width 100 ft
---- / hdg 55

(B) RW 14 length 6306 ft width 150 ft
---- / hdg 145

(C) RW 23 length 4499 ft width 100 ft
---- / hdg 235

(D) RW 32 length 6306 ft width 150 ft
ILS 108.30 / hdg 325

Location; KBFD
Day. 05 / Time. 21.53 Zulu
* Altimeter: 29.95
* Temperature: -02° c. -28.4°f.
* Wind from: 300° Speed 10 kn.
Dewpoint: -06° c.
Visibility: 10 Statute Miles.
Clouds: Broken 1800 ft.
Clouds: Overcast 2300 ft.

KBFD 052153Z AUTO 30010KT 10SM BKN018 OVC023 M02/M06 A2995 RMK AO2 SLP163 T10221056


Wind From 300°
Speed 10 kn.

 
 
jpsmedia worldairports.se 2019   terms of use